Time;durP1;ratioP1;P1;durP2;ratioP2;P2;SDS_P1;SDS_P2;PMS_P1;PMS_P2;Temp;Humidity;BMP_temperature;BMP_pressure;BME280_temperature;BME280_humidity;BME280_pressure;Samples;Min_cycle;Max_cycle;Signal;HPM_P1;HPM_P2
2022/12/22 03:27:12;;;;;;;10.80;9.25;;;9.90;99.90;;;;;;5072190;28;20211;-65
2022/12/22 03:29:40;;;;;;;10.38;7.82;;;9.90;99.90;;;;;;5071661;28;20200;-65
2022/12/22 03:32:08;;;;;;;16.27;14.07;;;9.90;99.90;;;;;;5071719;28;20269;-65
2022/12/22 03:34:37;;;;;;;11.48;9.93;;;9.90;99.90;;;;;;5071783;28;20219;-65
2022/12/22 03:37:05;;;;;;;6.65;4.00;;;9.90;99.90;;;;;;5051918;28;20663;-65
2022/12/22 03:39:33;;;;;;;11.43;7.97;;;9.90;99.90;;;;;;5051851;28;20205;-65
2022/12/22 03:47:32;;;;;;;3.88;3.42;;;10.00;99.90;;;;;;5056193;28;20208;-66
2022/12/22 03:50:01;;;;;;;7.20;5.63;;;10.00;99.90;;;;;;5062449;28;20283;-66
2022/12/22 03:52:29;;;;;;;3.88;3.10;;;10.00;99.90;;;;;;5068439;28;20292;-66
2022/12/22 03:54:57;;;;;;;5.32;4.45;;;10.00;99.90;;;;;;5066962;28;20291;-66
2022/12/22 03:57:25;;;;;;;3.85;3.28;;;10.00;99.90;;;;;;5067938;28;20252;-66
2022/12/22 03:59:53;;;;;;;2.78;2.58;;;10.00;99.90;;;;;;5068826;28;20283;-66
2022/12/22 04:02:21;;;;;;;5.28;3.63;;;10.10;99.90;;;;;;5081674;28;20333;-66
2022/12/22 04:04:49;;;;;;;3.58;3.28;;;10.00;99.90;;;;;;5088916;28;20255;-66
2022/12/22 04:07:18;;;;;;;4.93;2.10;;;10.00;99.90;;;;;;5074073;28;20284;-66
2022/12/22 04:15:13;;;;;;;3.33;2.70;;;10.00;99.90;;;;;;5082242;28;20267;-66
2022/12/22 04:17:41;;;;;;;4.50;2.95;;;10.10;99.90;;;;;;5082458;28;20255;-66
2022/12/22 04:20:10;;;;;;;2.65;2.03;;;10.10;99.90;;;;;;5082168;28;20287;-66
2022/12/22 04:22:39;;;;;;;5.03;2.35;;;10.00;99.90;;;;;;5081184;28;20310;-66
2022/12/22 04:25:08;;;;;;;3.50;1.80;;;10.10;99.90;;;;;;5082091;28;20290;-67
2022/12/22 04:27:36;;;;;;;2.85;2.00;;;10.10;99.90;;;;;;5081442;28;20298;-66
2022/12/22 04:30:04;;;;;;;2.60;2.40;;;10.10;99.90;;;;;;5073015;28;20264;-66
2022/12/22 04:32:32;;;;;;;4.93;2.05;;;10.10;99.90;;;;;;5070444;28;20252;-66
2022/12/22 04:35:00;;;;;;;3.05;2.42;;;10.10;99.90;;;;;;5083809;28;20290;-66
2022/12/22 04:37:28;;;;;;;4.15;3.33;;;10.20;99.90;;;;;;5083271;28;20282;-66
2022/12/22 04:39:58;;;;;;;4.45;2.85;;;10.20;99.90;;;;;;5072549;28;20201;-66
2022/12/22 04:42:26;;;;;;;4.13;2.45;;;10.20;99.90;;;;;;5066036;28;20616;-66
2022/12/22 04:44:54;;;;;;;4.15;2.47;;;10.20;99.90;;;;;;5065262;28;20771;-66
2022/12/22 04:47:21;;;;;;;7.05;1.80;;;10.20;99.90;;;;;;5068745;28;20276;-66
2022/12/22 04:49:49;;;;;;;5.63;1.95;;;10.10;99.90;;;;;;5066075;28;20261;-66
2022/12/22 04:52:17;;;;;;;4.15;2.08;;;10.20;99.90;;;;;;5067765;28;20303;-66
2022/12/22 04:54:45;;;;;;;4.88;2.30;;;10.20;99.90;;;;;;5066914;28;20638;-67
2022/12/22 04:57:14;;;;;;;3.30;2.08;;;10.20;99.90;;;;;;5069713;28;20233;-67
2022/12/22 04:59:42;;;;;;;3.00;2.00;;;10.30;99.90;;;;;;5078310;28;20258;-66
2022/12/22 05:02:10;;;;;;;4.65;2.05;;;10.30;99.90;;;;;;5071934;28;20228;-66
2022/12/22 05:04:40;;;;;;;5.05;2.50;;;10.30;99.90;;;;;;5072099;28;20593;-67
2022/12/22 05:07:08;;;;;;;2.75;2.15;;;10.30;99.90;;;;;;5071860;28;20283;-66
2022/12/22 05:09:36;;;;;;;2.15;1.95;;;10.30;99.90;;;;;;5071760;28;20205;-66
2022/12/22 05:12:53;;;;;;;4.07;2.00;;;10.30;99.90;;;;;;5070272;28;20353;-66
2022/12/22 05:14:53;;;;;;;3.90;2.30;;;10.40;99.90;;;;;;5068659;28;20287;-66
2022/12/22 05:17:21;;;;;;;3.13;1.70;;;10.40;99.90;;;;;;5063674;28;20256;-66
2022/12/22 05:19:49;;;;;;;1.88;1.75;;;10.40;99.90;;;;;;5079506;28;20259;-66
2022/12/22 05:22:17;;;;;;;3.25;2.40;;;10.40;99.90;;;;;;5079965;28;20277;-66
2022/12/22 05:24:45;;;;;;;5.80;2.55;;;10.40;99.90;;;;;;5080126;28;20279;-66
2022/12/22 05:27:13;;;;;;;8.88;2.42;;;10.50;99.90;;;;;;5082010;28;20255;-66
2022/12/22 05:29:41;;;;;;;3.70;1.73;;;10.40;99.90;;;;;;5082500;28;20275;-66
2022/12/22 05:32:10;;;;;;;5.13;1.90;;;10.40;99.90;;;;;;5083080;28;20654;-66
2022/12/22 05:34:38;;;;;;;5.03;2.15;;;10.40;99.90;;;;;;5080566;28;20314;-66
2022/12/22 05:37:06;;;;;;;2.55;1.85;;;10.50;99.90;;;;;;5084253;28;20616;-67
2022/12/22 05:39:34;;;;;;;3.88;1.60;;;10.50;99.90;;;;;;5085061;28;20255;-66
2022/12/22 05:42:02;;;;;;;3.13;2.03;;;10.50;99.90;;;;;;5080254;28;20267;-66
2022/12/22 05:44:30;;;;;;;4.88;1.85;;;10.60;99.90;;;;;;5080006;28;20295;-66
2022/12/22 05:46:58;;;;;;;5.22;1.48;;;10.60;99.90;;;;;;5079935;28;20263;-66
2022/12/22 05:49:27;;;;;;;2.72;1.25;;;10.60;99.90;;;;;;5081776;28;20303;-66
2022/12/22 05:51:55;;;;;;;1.50;1.40;;;10.70;99.90;;;;;;5074300;28;20196;-67
2022/12/22 05:54:23;;;;;;;2.60;1.90;;;10.70;99.90;;;;;;5070879;28;20283;-66
2022/12/22 05:56:51;;;;;;;5.82;1.95;;;10.60;99.90;;;;;;5071349;28;20205;-66
2022/12/22 05:59:19;;;;;;;2.35;1.50;;;10.60;99.90;;;;;;5073944;28;20304;-66
2022/12/22 06:01:47;;;;;;;3.15;1.58;;;10.60;99.90;;;;;;5063418;28;20287;-67
2022/12/22 06:04:14;;;;;;;3.55;1.75;;;10.70;99.90;;;;;;5081022;28;20299;-66
2022/12/22 06:06:44;;;;;;;5.43;1.70;;;10.60;99.90;;;;;;5080445;28;20283;-66
2022/12/22 06:09:11;;;;;;;7.82;2.75;;;10.60;99.90;;;;;;5080074;28;20347;-66
2022/12/22 06:11:39;;;;;;;8.52;2.05;;;10.60;99.90;;;;;;5081562;28;20282;-66
2022/12/22 06:14:07;;;;;;;3.92;1.85;;;10.60;99.90;;;;;;5080576;28;20287;-65
2022/12/22 06:16:35;;;;;;;11.68;2.35;;;10.50;99.90;;;;;;5070999;28;20279;-66
2022/12/22 06:19:03;;;;;;;3.08;1.80;;;10.50;99.90;;;;;;5067799;28;20252;-65
2022/12/22 06:21:31;;;;;;;5.55;2.03;;;10.50;99.90;;;;;;5076330;28;20275;-65
2022/12/22 06:24:01;;;;;;;4.38;1.67;;;10.40;99.90;;;;;;5077143;28;20283;-65
2022/12/22 06:26:29;;;;;;;7.40;2.25;;;10.50;99.90;;;;;;5062820;28;20640;-66
2022/12/22 06:28:57;;;;;;;4.82;2.47;;;10.40;99.90;;;;;;5062870;28;20747;-66
2022/12/22 06:31:25;;;;;;;8.65;2.00;;;10.40;99.90;;;;;;5064475;28;20626;-66
2022/12/22 06:33:53;;;;;;;2.85;2.17;;;10.40;99.90;;;;;;5060751;28;20260;-66
2022/12/22 06:36:21;;;;;;;7.50;2.10;;;10.30;99.90;;;;;;5063386;28;20733;-66
2022/12/22 06:38:49;;;;;;;8.25;2.00;;;10.30;99.90;;;;;;5061693;28;20302;-66
2022/12/22 06:43:07;;;;;;;3.25;2.15;;;10.30;99.90;;;;;;5067669;28;20260;-66
2022/12/22 06:44:05;;;;;;;4.75;2.47;;;10.30;99.90;;;;;;5078899;28;20243;-66
2022/12/22 06:46:33;;;;;;;6.10;2.40;;;10.30;99.90;;;;;;5060324;28;20350;-66
2022/12/22 06:49:01;;;;;;;4.70;1.70;;;10.30;99.90;;;;;;5059132;28;20258;-66
2022/12/22 06:51:29;;;;;;;2.90;1.75;;;10.40;99.90;;;;;;5076534;28;20248;-66
2022/12/22 06:53:57;;;;;;;4.10;2.03;;;10.40;99.90;;;;;;5077002;28;20287;-66
2022/12/22 06:56:26;;;;;;;12.55;2.92;;;10.40;99.90;;;;;;5058487;28;20222;-66
2022/12/22 06:58:54;;;;;;;5.32;1.60;;;10.40;99.90;;;;;;5060456;28;20232;-66
2022/12/22 07:01:22;;;;;;;8.57;2.15;;;10.50;99.90;;;;;;5076623;28;20284;-67
2022/12/22 07:03:50;;;;;;;7.90;1.80;;;10.60;99.90;;;;;;5076941;28;20213;-66
2022/12/22 07:06:18;;;;;;;8.23;1.98;;;10.70;99.90;;;;;;5071028;28;20400;-66
2022/12/22 07:08:46;;;;;;;22.73;2.80;;;10.90;99.90;;;;;;5062928;28;20295;-66
2022/12/22 07:11:15;;;;;;;7.50;2.75;;;10.90;99.90;;;;;;5059274;28;20230;-66
2022/12/22 07:13:45;;;;;;;8.75;2.92;;;10.90;99.90;;;;;;5062775;28;20200;-66
2022/12/22 07:16:13;;;;;;;12.27;2.47;;;10.90;99.90;;;;;;5072077;28;20248;-66
2022/12/22 07:18:42;;;;;;;5.78;2.28;;;10.90;99.90;;;;;;5057301;28;20715;-66
2022/12/22 07:21:13;;;;;;;5.45;1.52;;;11.00;99.90;;;;;;5058571;28;20272;-66
2022/12/22 07:23:41;;;;;;;8.07;2.40;;;11.00;99.90;;;;;;5063363;28;20294;-66
2022/12/22 07:26:14;;;;;;;10.18;2.90;;;11.10;99.90;;;;;;5074369;28;20202;-65
2022/12/22 07:28:44;;;;;;;6.40;3.05;;;11.10;99.90;;;;;;5075402;28;20211;-66
2022/12/22 07:31:12;;;;;;;7.70;2.65;;;11.20;99.90;;;;;;5077139;28;20283;-66
2022/12/22 07:33:40;;;;;;;5.00;2.22;;;11.20;99.90;;;;;;5077804;28;20264;-65
2022/12/22 07:36:12;;;;;;;9.75;2.72;;;11.20;99.90;;;;;;5070471;28;20256;-65
2022/12/22 07:38:42;;;;;;;9.45;2.10;;;11.20;99.90;;;;;;5076849;28;20267;-65
2022/12/22 07:43:57;;;;;;;9.40;2.47;;;11.30;99.90;;;;;;5062788;28;20260;-65
2022/12/22 07:46:27;;;;;;;8.50;2.78;;;11.40;99.90;;;;;;5063063;28;20268;-64
2022/12/22 07:51:44;;;;;;;6.43;2.60;;;11.30;99.90;;;;;;5061627;28;20280;-66
2022/12/22 07:54:13;;;;;;;12.32;2.95;;;11.30;99.90;;;;;;5062155;28;20256;-65
2022/12/22 07:56:42;;;;;;;7.35;2.90;;;11.40;99.90;;;;;;5062534;28;20264;-66
2022/12/22 07:59:12;;;;;;;6.45;2.67;;;11.40;99.90;;;;;;5063151;28;20712;-66
2022/12/22 08:01:41;;;;;;;10.68;2.85;;;11.40;99.90;;;;;;5067822;28;20632;-66
2022/12/22 08:04:11;;;;;;;9.07;2.60;;;11.40;99.90;;;;;;5078161;28;20263;-66
2022/12/22 08:06:40;;;;;;;12.05;3.90;;;11.50;99.90;;;;;;5060198;28;20268;-67
2022/12/22 08:09:09;;;;;;;6.00;2.22;;;11.50;99.90;;;;;;5073412;28;20264;-67
2022/12/22 08:11:36;;;;;;;16.88;3.20;;;11.50;99.90;;;;;;5070670;28;20296;-65
2022/12/22 08:14:04;;;;;;;14.85;3.22;;;11.50;99.90;;;;;;5067425;28;20283;-66
2022/12/22 08:16:34;;;;;;;10.57;2.90;;;11.50;99.90;;;;;;5062166;28;20820;-66
2022/12/22 08:19:02;;;;;;;19.50;3.88;;;11.50;99.90;;;;;;5076508;28;20733;-65
2022/12/22 08:21:30;;;;;;;8.27;3.13;;;11.50;99.90;;;;;;5063177;28;20284;-65
2022/12/22 08:23:58;;;;;;;12.43;2.70;;;11.50;99.90;;;;;;5080452;28;20257;-66
2022/12/22 08:26:31;;;;;;;13.25;3.20;;;11.50;99.90;;;;;;5079786;28;20628;-66
2022/12/22 08:29:03;;;;;;;15.75;3.22;;;11.50;99.90;;;;;;5066656;28;20264;-65
2022/12/22 08:31:32;;;;;;;7.32;2.90;;;11.40;99.90;;;;;;5075531;28;20295;-65
2022/12/22 08:34:05;;;;;;;13.73;2.85;;;11.40;99.90;;;;;;5084651;28;20260;-66
2022/12/22 08:36:38;;;;;;;13.73;3.10;;;11.30;99.90;;;;;;5068733;28;20244;-66
2022/12/22 08:39:07;;;;;;;13.25;3.60;;;11.30;99.90;;;;;;5070109;28;20219;-67
2022/12/22 08:41:50;;;;;;;13.45;3.03;;;11.30;99.90;;;;;;5077602;28;20256;-67
2022/12/22 08:44:21;;;;;;;14.45;2.20;;;11.30;99.90;;;;;;5058461;28;20192;-67
2022/12/22 08:46:50;;;;;;;10.02;2.40;;;11.40;99.90;;;;;;5064489;28;20252;-66
2022/12/22 08:49:19;;;;;;;9.20;2.30;;;11.40;99.90;;;;;;5052849;28;20276;-65
2022/12/22 08:51:48;;;;;;;7.07;3.65;;;11.40;99.90;;;;;;5068588;28;20219;-65
2022/12/22 08:54:17;;;;;;;6.72;2.05;;;11.30;99.90;;;;;;5071070;28;20475;-64
2022/12/22 08:56:45;;;;;;;7.07;2.20;;;11.30;99.90;;;;;;5084920;28;20290;-65
2022/12/22 08:59:14;;;;;;;13.68;3.05;;;11.20;99.90;;;;;;5071637;28;20754;-66
2022/12/22 09:01:46;;;;;;;4.68;1.98;;;11.20;99.90;;;;;;5081195;28;20282;-66
2022/12/22 09:04:15;;;;;;;6.65;1.80;;;11.20;99.90;;;;;;5071501;28;20245;-66
2022/12/22 09:06:45;;;;;;;11.00;2.10;;;11.20;99.90;;;;;;5079078;28;20256;-66
2022/12/22 09:09:15;;;;;;;3.60;1.80;;;11.10;99.90;;;;;;5087129;28;20271;-66
2022/12/22 09:11:43;;;;;;;9.38;2.25;;;11.10;99.90;;;;;;5075052;28;20284;-66
2022/12/22 09:14:12;;;;;;;7.90;2.80;;;11.00;99.90;;;;;;5062660;28;20279;-66
2022/12/22 09:16:40;;;;;;;8.15;1.92;;;10.90;99.90;;;;;;5062838;28;20275;-66
2022/12/22 09:19:08;;;;;;;5.50;1.33;;;10.90;99.90;;;;;;5062896;28;20341;-66
2022/12/22 09:21:36;;;;;;;7.70;2.35;;;10.90;99.90;;;;;;5063829;28;20283;-66
2022/12/22 09:24:07;;;;;;;8.13;3.40;;;10.80;99.90;;;;;;5080304;28;20683;-65
2022/12/22 09:26:35;;;;;;;6.15;2.95;;;10.80;99.90;;;;;;5088862;28;20271;-65
2022/12/22 09:29:04;;;;;;;7.00;2.15;;;10.80;99.90;;;;;;5072345;28;20275;-66
2022/12/22 09:31:32;;;;;;;9.40;2.08;;;10.80;99.90;;;;;;5065649;28;20280;-66
2022/12/22 09:34:00;;;;;;;4.25;1.70;;;10.80;99.90;;;;;;5067934;28;20252;-66
2022/12/22 09:36:32;;;;;;;9.02;1.90;;;10.80;99.90;;;;;;5083283;28;20278;-66
2022/12/22 09:39:06;;;;;;;9.95;2.65;;;10.80;99.90;;;;;;5081125;28;20271;-65
2022/12/22 09:41:37;;;;;;;5.00;2.30;;;10.80;99.90;;;;;;5065819;28;20267;-67
2022/12/22 09:44:12;;;;;;;5.63;2.22;;;10.80;99.90;;;;;;5064399;28;20271;-65
2022/12/22 09:46:41;;;;;;;8.40;2.17;;;10.80;99.90;;;;;;5079913;28;20195;-65
2022/12/22 09:49:13;;;;;;;9.88;2.10;;;10.80;99.90;;;;;;5077221;28;20280;-65
2022/12/22 09:51:44;;;;;;;12.68;2.13;;;10.80;99.90;;;;;;5069951;28;20239;-64
2022/12/22 09:54:14;;;;;;;14.95;3.13;;;10.80;99.90;;;;;;5086399;28;20267;-64
2022/12/22 09:56:43;;;;;;;6.55;1.73;;;10.90;99.90;;;;;;5085338;28;20276;-65
2022/12/22 09:59:12;;;;;;;8.20;2.25;;;10.90;99.90;;;;;;5067177;28;20347;-65
2022/12/22 10:02:04;;;;;;;7.63;2.30;;;10.90;99.90;;;;;;5066693;28;20279;-65
2022/12/22 10:04:49;;;;;;;5.70;2.10;;;10.90;99.90;;;;;;5068555;28;20279;-64
2022/12/22 10:07:26;;;;;;;2.42;1.83;;;11.00;99.90;;;;;;5074581;28;20228;-64
2022/12/22 10:09:56;;;;;;;6.45;2.88;;;11.00;99.90;;;;;;5072233;28;20247;-65
2022/12/22 10:12:26;;;;;;;5.15;1.55;;;11.00;99.90;;;;;;5069713;28;20232;-65
2022/12/22 10:14:54;;;;;;;4.10;1.50;;;11.10;99.90;;;;;;5064337;28;20253;-64
2022/12/22 10:17:26;;;;;;;4.10;1.17;;;11.10;99.90;;;;;;5068036;28;20288;-65
2022/12/22 10:20:09;;;;;;;8.30;1.90;;;11.20;99.90;;;;;;5078905;28;20244;-66
2022/12/22 10:22:47;;;;;;;2.47;1.35;;;11.20;99.90;;;;;;5082920;28;20327;-66
2022/12/22 10:25:29;;;;;;;1.80;1.40;;;11.20;99.90;;;;;;5084163;28;20278;-65
2022/12/22 10:27:58;;;;;;;3.17;1.27;;;11.30;99.90;;;;;;5073033;28;20271;-66
2022/12/22 10:30:30;;;;;;;3.67;1.30;;;11.30;99.90;;;;;;5064463;28;20304;-65
2022/12/22 10:33:06;;;;;;;3.40;1.50;;;11.30;99.90;;;;;;5076960;28;20247;-65
2022/12/22 10:35:54;;;;;;;6.10;1.75;;;11.20;99.90;;;;;;5076811;28;20279;-65
2022/12/22 10:38:25;;;;;;;3.90;1.50;;;11.10;99.90;;;;;;5058882;28;20201;-65
2022/12/22 10:40:57;;;;;;;6.75;1.80;;;11.00;99.90;;;;;;5051999;28;20772;-65
2022/12/22 10:43:27;;;;;;;10.82;1.73;;;11.00;99.90;;;;;;5062624;28;20213;-65
2022/12/22 10:45:57;;;;;;;4.60;1.90;;;11.00;99.90;;;;;;5066861;28;20510;-64
2022/12/22 10:48:30;;;;;;;7.10;3.00;;;11.00;99.90;;;;;;5069058;28;20210;-64
2022/12/22 10:50:59;;;;;;;15.18;2.00;;;11.10;99.90;;;;;;5070262;28;20214;-65
2022/12/22 10:53:43;;;;;;;8.50;2.22;;;11.00;99.90;;;;;;5051785;28;20196;-64
2022/12/22 10:56:22;;;;;;;3.78;1.80;;;11.00;99.90;;;;;;5051797;28;20192;-64
2022/12/22 10:58:53;;;;;;;7.57;2.95;;;10.90;99.90;;;;;;5050545;28;20238;-64
2022/12/22 11:01:28;;;;;;;5.47;2.50;;;10.90;99.90;;;;;;5052756;28;20203;-63
2022/12/22 11:03:57;;;;;;;8.23;1.98;;;10.90;99.90;;;;;;5051677;28;20200;-65
2022/12/22 11:06:25;;;;;;;5.80;2.05;;;10.90;99.90;;;;;;5052625;28;20200;-63
2022/12/22 11:08:53;;;;;;;7.35;2.45;;;10.90;99.90;;;;;;5063296;28;20706;-63
2022/12/22 11:11:35;;;;;;;5.95;1.88;;;10.90;99.90;;;;;;5069660;28;20222;-64
2022/12/22 11:14:13;;;;;;;7.30;1.80;;;10.90;99.90;;;;;;5072682;28;20192;-63
2022/12/22 11:16:46;;;;;;;5.97;2.00;;;10.90;99.90;;;;;;5061512;28;20206;-64
2022/12/22 11:19:34;;;;;;;6.50;2.90;;;11.00;99.90;;;;;;5058946;28;20203;-64
2022/12/22 11:22:11;;;;;;;5.50;1.83;;;11.00;99.90;;;;;;5050493;28;20225;-64
2022/12/22 11:24:49;;;;;;;2.45;1.73;;;11.00;99.90;;;;;;5056661;28;20560;-64
2022/12/22 11:27:29;;;;;;;4.35;1.65;;;11.00;99.90;;;;;;5059549;28;20256;-64
2022/12/22 11:30:08;;;;;;;5.15;1.40;;;11.10;99.90;;;;;;5071438;28;20600;-64
2022/12/22 11:33:09;;;;;;;6.22;2.05;;;11.20;99.90;;;;;;5056930;28;20211;-64
2022/12/22 11:35:49;;;;;;;8.18;1.90;;;11.20;99.90;;;;;;5070150;28;20202;-64
2022/12/22 11:38:33;;;;;;;2.53;1.60;;;11.20;99.90;;;;;;5049211;28;20205;-65
2022/12/22 11:41:09;;;;;;;9.15;1.73;;;11.20;99.90;;;;;;5051484;28;20185;-65
2022/12/22 11:43:51;;;;;;;6.78;1.92;;;11.20;99.90;;;;;;5060583;28;20650;-65
2022/12/22 11:46:29;;;;;;;5.65;1.88;;;11.20;99.90;;;;;;5069773;28;20191;-65
2022/12/22 11:49:08;;;;;;;8.73;2.30;;;11.30;99.90;;;;;;5070696;28;20634;-64
2022/12/22 11:51:49;;;;;;;4.15;1.88;;;11.20;99.90;;;;;;5056236;28;20208;-65
2022/12/22 11:54:53;;;;;;;3.95;1.77;;;11.30;99.90;;;;;;5063478;28;20192;-64
2022/12/22 11:57:31;;;;;;;5.38;1.77;;;11.30;99.90;;;;;;5058159;28;20197;-62
2022/12/22 12:00:08;;;;;;;7.90;2.05;;;11.30;99.90;;;;;;5059101;28;20238;-65
2022/12/22 12:03:10;;;;;;;6.18;1.70;;;11.40;99.90;;;;;;5055535;28;20200;-65
2022/12/22 12:05:54;;;;;;;2.95;1.40;;;11.50;99.90;;;;;;5052688;28;20203;-64
2022/12/22 12:08:30;;;;;;;2.45;1.10;;;11.60;99.90;;;;;;5055751;28;20403;-64
2022/12/22 12:11:17;;;;;;;3.17;1.15;;;11.70;99.90;;;;;;5055089;28;20204;-64
2022/12/22 12:13:54;;;;;;;1.87;0.90;;;11.70;99.90;;;;;;5060466;28;20196;-64
2022/12/22 12:16:34;;;;;;;1.27;1.00;;;11.70;99.90;;;;;;5063011;28;20596;-65
2022/12/22 12:19:44;;;;;;;6.27;1.53;;;11.60;99.90;;;;;;5063623;28;20201;-65
2022/12/22 12:22:22;;;;;;;6.28;1.75;;;11.50;99.90;;;;;;5000726;28;20727;-66
2022/12/22 12:25:00;;;;;;;5.53;1.77;;;11.30;99.90;;;;;;5000563;28;20201;-65
2022/12/22 12:27:42;;;;;;;6.70;1.90;;;11.20;99.90;;;;;;5035560;28;20937;-65
2022/12/22 12:30:14;;;;;;;4.00;1.60;;;11.20;99.90;;;;;;5053093;28;20965;-65
2022/12/22 12:32:50;;;;;;;2.50;1.60;;;11.10;99.90;;;;;;5053675;28;20272;-65
2022/12/22 12:35:38;;;;;;;5.75;1.60;;;11.10;99.90;;;;;;5052629;28;20580;-65
2022/12/22 12:38:12;;;;;;;2.50;1.55;;;11.10;99.90;;;;;;5053210;28;20197;-65
2022/12/22 12:40:51;;;;;;;1.58;1.20;;;11.10;99.90;;;;;;5056980;28;20193;-66
2022/12/22 12:43:20;;;;;;;1.95;0.82;;;11.10;99.90;;;;;;5052629;28;20590;-65
2022/12/22 12:45:49;;;;;;;2.15;1.20;;;11.10;99.90;;;;;;5053983;28;20203;-64
2022/12/22 12:48:45;;;;;;;4.22;1.85;;;11.10;99.90;;;;;;5057850;28;20203;-64
2022/12/22 12:51:49;;;;;;;6.18;1.50;;;11.10;99.90;;;;;;5015879;28;20209;-65
2022/12/22 12:54:37;;;;;;;3.88;1.95;;;11.10;99.90;;;;;;5059380;28;20200;-65
2022/12/22 12:57:29;;;;;;;3.72;1.75;;;11.10;99.90;;;;;;5052031;28;20204;-65
2022/12/22 12:59:58;;;;;;;2.90;1.70;;;11.10;99.90;;;;;;5052351;28;20220;-66
2022/12/22 13:02:38;;;;;;;5.03;2.17;;;11.10;99.90;;;;;;5059033;28;20223;-65
2022/12/22 13:05:48;;;;;;;4.22;1.60;;;11.20;99.90;;;;;;5062605;28;20587;-65
2022/12/22 13:08:19;;;;;;;3.53;1.73;;;11.20;99.90;;;;;;5061117;28;20200;-65
2022/12/22 13:11:09;;;;;;;3.45;1.23;;;11.20;99.90;;;;;;5065546;28;20641;-64
2022/12/22 13:13:49;;;;;;;1.55;0.90;;;11.20;99.90;;;;;;5060946;28;20189;-65
2022/12/22 13:16:35;;;;;;;2.53;0.90;;;11.30;99.90;;;;;;5068964;28;20719;-66
2022/12/22 13:19:14;;;;;;;2.13;0.85;;;11.30;99.90;;;;;;5073169;28;20192;-65
2022/12/22 13:21:45;;;;;;;2.22;0.90;;;11.30;99.90;;;;;;5053916;28;20185;-65
2022/12/22 13:24:28;;;;;;;1.63;1.50;;;11.30;99.90;;;;;;5066641;28;20188;-65
2022/12/22 13:27:01;;;;;;;3.97;1.48;;;11.20;99.90;;;;;;5074894;28;20236;-64
2022/12/22 13:29:50;;;;;;;5.68;1.80;;;11.10;99.90;;;;;;5054363;28;20196;-64
2022/12/22 13:32:23;;;;;;;4.10;1.85;;;11.10;99.90;;;;;;5060170;28;20889;-64
2022/12/22 13:35:03;;;;;;;9.07;2.15;;;11.00;99.90;;;;;;5062351;28;20193;-64
2022/12/22 13:37:40;;;;;;;11.43;1.85;;;11.00;99.90;;;;;;5058541;28;20199;-65
2022/12/22 13:40:12;;;;;;;6.88;1.90;;;10.90;99.90;;;;;;5061754;28;20192;-66
2022/12/22 13:42:42;;;;;;;5.40;1.63;;;10.90;99.90;;;;;;5065039;28;20200;-65
2022/12/22 13:45:20;;;;;;;9.90;1.80;;;10.90;99.90;;;;;;5062517;28;20573;-65
2022/12/22 13:47:49;;;;;;;6.25;1.67;;;10.80;99.90;;;;;;5068182;28;20197;-65
2022/12/22 13:50:20;;;;;;;9.45;1.80;;;10.80;99.90;;;;;;5054387;28;20201;-65
2022/12/22 13:52:51;;;;;;;12.55;3.92;;;10.70;99.90;;;;;;5071822;28;20208;-65
2022/12/22 13:55:27;;;;;;;11.30;2.90;;;10.70;99.90;;;;;;5073814;28;20192;-65
2022/12/22 13:58:05;;;;;;;11.88;3.10;;;10.70;99.90;;;;;;5055481;28;20208;-66
2022/12/22 14:00:33;;;;;;;21.33;3.88;;;10.60;99.90;;;;;;5023368;28;20202;-66
2022/12/22 14:03:03;;;;;;;19.98;4.88;;;10.60;99.90;;;;;;5027473;28;20196;-64
2022/12/22 14:05:33;;;;;;;17.77;4.22;;;10.60;99.90;;;;;;5014117;28;20210;-65
2022/12/22 14:08:04;;;;;;;11.93;3.50;;;10.60;99.90;;;;;;5014387;28;20202;-65
2022/12/22 14:10:37;;;;;;;16.42;3.58;;;10.60;99.90;;;;;;5026914;28;20625;-65
2022/12/22 14:13:11;;;;;;;28.90;4.50;;;10.60;99.90;;;;;;5029455;28;20216;-65
2022/12/22 14:15:39;;;;;;;26.50;4.93;;;10.50;99.90;;;;;;5032810;28;20200;-65
2022/12/22 14:18:07;;;;;;;18.98;4.60;;;10.50;99.90;;;;;;5027461;28;20205;-65
2022/12/22 14:20:39;;;;;;;25.60;4.90;;;10.50;99.90;;;;;;5024305;28;20193;-65
2022/12/22 14:23:13;;;;;;;27.00;6.53;;;10.50;99.90;;;;;;5032739;28;20586;-65
2022/12/22 14:25:43;;;;;;;21.40;5.03;;;10.50;99.90;;;;;;5019766;28;20201;-65
2022/12/22 14:28:17;;;;;;;33.92;6.32;;;10.50;99.90;;;;;;5020493;28;20210;-65
2022/12/22 14:30:48;;;;;;;39.08;7.15;;;10.50;99.90;;;;;;5025328;28;20416;-66
2022/12/22 14:33:26;;;;;;;27.65;5.15;;;10.50;99.90;;;;;;5018599;28;20220;-67
2022/12/22 14:36:15;;;;;;;34.05;7.20;;;10.50;99.90;;;;;;5018160;28;20236;-67
2022/12/22 14:38:47;;;;;;;39.53;7.18;;;10.50;99.90;;;;;;5026440;28;20270;-66
2022/12/22 14:44:11;;;;;;;41.47;8.13;;;10.50;99.90;;;;;;5012937;28;20201;-65
2022/12/22 14:46:39;;;;;;;24.90;5.47;;;10.50;99.90;;;;;;5019328;28;20208;-65
2022/12/22 14:49:14;;;;;;;29.58;5.57;;;10.60;99.90;;;;;;5022516;28;20201;-65
2022/12/22 14:51:42;;;;;;;33.17;5.75;;;10.60;99.90;;;;;;5018657;28;20186;-66
2022/12/22 14:54:20;;;;;;;35.95;6.85;;;10.70;99.90;;;;;;5023590;28;20251;-66
2022/12/22 14:56:50;;;;;;;26.83;5.07;;;10.70;99.90;;;;;;5016107;28;20197;-66
2022/12/22 14:59:26;;;;;;;39.90;5.95;;;10.70;99.90;;;;;;5055180;28;20228;-66
2022/12/22 15:01:59;;;;;;;23.80;5.72;;;10.70;99.90;;;;;;5069702;28;20574;-66
2022/12/22 15:04:28;;;;;;;35.25;6.15;;;10.80;99.90;;;;;;5051491;28;20195;-65
2022/12/22 15:07:06;;;;;;;30.38;5.35;;;10.80;99.90;;;;;;5060430;28;20204;-65
2022/12/22 15:09:35;;;;;;;29.50;6.05;;;10.90;99.90;;;;;;5051207;28;20193;-66
2022/12/22 15:12:10;;;;;;;20.42;5.30;;;10.90;99.90;;;;;;5051057;28;20223;-66
2022/12/22 15:14:38;;;;;;;23.77;4.70;;;10.90;99.90;;;;;;5058179;28;20195;-66
2022/12/22 15:17:15;;;;;;;28.08;6.57;;;11.00;99.90;;;;;;5061125;28;20206;-66
2022/12/22 15:19:43;;;;;;;16.20;4.90;;;11.00;99.90;;;;;;5060679;28;20548;-65
2022/12/22 15:22:12;;;;;;;24.08;6.35;;;11.00;99.90;;;;;;5061427;28;20581;-65
2022/12/22 15:24:41;;;;;;;15.57;4.20;;;11.00;99.90;;;;;;5060382;28;20196;-65
2022/12/22 15:27:09;;;;;;;20.95;5.65;;;11.00;99.90;;;;;;5061567;28;20192;-64
2022/12/22 15:29:37;;;;;;;28.80;5.80;;;11.00;99.90;;;;;;5061240;28;20673;-66
2022/12/22 15:32:11;;;;;;;23.52;5.18;;;11.00;99.90;;;;;;5060753;28;20212;-66
2022/12/22 15:34:39;;;;;;;24.13;5.60;;;10.90;99.90;;;;;;5061820;28;20192;-66
2022/12/22 15:37:10;;;;;;;17.95;5.55;;;10.90;99.90;;;;;;5059250;28;20662;-66
2022/12/22 15:39:38;;;;;;;21.63;5.13;;;10.90;99.90;;;;;;5060098;28;20188;-65
2022/12/22 15:42:07;;;;;;;25.90;5.97;;;11.00;99.90;;;;;;5061654;28;20257;-66
2022/12/22 15:44:35;;;;;;;26.55;7.90;;;11.00;99.90;;;;;;5059458;28;20215;-66
2022/12/22 15:47:03;;;;;;;26.17;6.80;;;10.90;99.90;;;;;;5071658;28;20274;-66
2022/12/22 15:49:31;;;;;;;25.67;5.43;;;11.00;99.90;;;;;;5058126;28;20266;-65
2022/12/22 15:52:03;;;;;;;29.63;5.60;;;11.00;99.90;;;;;;5071614;28;20210;-65
2022/12/22 15:54:32;;;;;;;37.88;8.93;;;11.00;99.90;;;;;;5072004;28;20195;-65
2022/12/22 15:57:01;;;;;;;26.02;7.30;;;11.00;99.90;;;;;;5070514;28;20204;-65
2022/12/22 15:59:30;;;;;;;28.83;6.43;;;11.00;99.90;;;;;;5071565;28;20238;-66
2022/12/22 16:01:58;;;;;;;17.77;4.90;;;11.00;99.90;;;;;;5069904;28;20576;-65
2022/12/22 16:04:27;;;;;;;22.45;6.05;;;11.00;99.90;;;;;;5070804;28;20669;-65
2022/12/22 16:06:55;;;;;;;27.42;5.90;;;11.00;99.90;;;;;;5058119;28;20217;-65
2022/12/22 16:09:27;;;;;;;15.77;4.72;;;11.00;99.90;;;;;;5061744;28;20209;-65
2022/12/22 16:11:55;;;;;;;22.37;4.47;;;11.00;99.90;;;;;;5051620;28;20192;-65
2022/12/22 16:14:24;;;;;;;23.83;4.95;;;10.90;99.90;;;;;;5059022;28;20636;-65
2022/12/22 16:16:55;;;;;;;19.38;5.55;;;10.90;99.90;;;;;;5059558;28;20200;-67
2022/12/22 16:19:23;;;;;;;40.83;6.18;;;10.90;99.90;;;;;;5069346;28;20196;-66
2022/12/22 16:21:52;;;;;;;19.58;4.95;;;10.90;99.90;;;;;;5065824;28;20207;-66
2022/12/22 16:24:26;;;;;;;21.70;5.55;;;10.90;99.90;;;;;;5054262;28;20538;-66
2022/12/22 16:26:56;;;;;;;31.42;5.53;;;10.90;99.90;;;;;;5052714;28;20237;-65
2022/12/22 16:29:25;;;;;;;18.83;4.82;;;10.80;99.90;;;;;;5057030;28;20192;-66
2022/12/22 16:32:14;;;;;;;27.08;5.22;;;10.80;99.90;;;;;;5064261;28;20382;-66
2022/12/22 16:34:42;;;;;;;27.02;5.15;;;10.80;99.90;;;;;;5061683;28;20208;-66
2022/12/22 16:37:10;;;;;;;19.15;4.70;;;10.70;99.90;;;;;;5063668;28;20207;-66
2022/12/22 16:39:38;;;;;;;33.08;6.40;;;10.80;99.90;;;;;;5052338;28;20656;-66
2022/12/22 16:42:10;;;;;;;13.73;3.78;;;10.80;99.90;;;;;;5056680;28;20203;-66
2022/12/22 16:44:40;;;;;;;23.10;7.32;;;10.80;99.90;;;;;;5058199;28;20544;-66
2022/12/22 16:47:16;;;;;;;23.85;6.32;;;10.80;99.90;;;;;;5061431;28;20573;-66
2022/12/22 16:49:45;;;;;;;29.85;6.00;;;10.70;99.90;;;;;;5057820;28;20204;-66
2022/12/22 16:52:18;;;;;;;22.52;6.20;;;10.70;99.90;;;;;;5059826;28;20681;-66
2022/12/22 16:54:47;;;;;;;27.45;7.38;;;10.70;99.90;;;;;;5054849;28;20217;-66